Time;durP1;ratioP1;P1;durP2;ratioP2;P2;SDS_P1;SDS_P2;PMS_P1;PMS_P2;Temp;Humidity;BMP_temperature;BMP_pressure;BME280_temperature;BME280_humidity;BME280_pressure;Samples;Min_cycle;Max_cycle;Signal;HPM_P1;HPM_P2
2021/06/07 00:01:23;;;;;;;4.45;4.05;;;20.20;99.90;;;;;;5033485;28;20207;-69
2021/06/07 00:03:50;;;;;;;5.07;4.63;;;20.20;99.90;;;;;;5033186;28;20207;-70
2021/06/07 00:06:17;;;;;;;5.25;4.75;;;20.20;99.90;;;;;;5033072;28;20196;-70
2021/06/07 00:08:45;;;;;;;4.50;4.18;;;20.20;99.90;;;;;;5033576;28;20194;-70
2021/06/07 00:11:12;;;;;;;4.80;4.40;;;20.20;99.90;;;;;;5033347;28;20195;-70
2021/06/07 00:13:40;;;;;;;4.28;3.90;;;20.20;99.90;;;;;;5033958;28;20246;-70
2021/06/07 00:16:07;;;;;;;4.97;4.47;;;20.20;99.90;;;;;;5030995;28;20223;-70
2021/06/07 00:18:33;;;;;;;5.00;4.15;;;20.20;99.90;;;;;;5026132;28;20223;-69
2021/06/07 00:21:05;;;;;;;5.40;5.00;;;20.20;99.90;;;;;;5032908;28;20204;-70
2021/06/07 00:23:31;;;;;;;5.20;4.70;;;20.20;99.90;;;;;;5033137;28;20662;-70
2021/06/07 00:25:58;;;;;;;4.57;4.22;;;20.20;99.90;;;;;;5032033;28;20223;-70
2021/06/07 00:28:24;;;;;;;5.50;5.00;;;20.20;99.90;;;;;;5032658;28;20260;-70
2021/06/07 00:30:51;;;;;;;5.05;4.57;;;20.20;99.90;;;;;;5033579;28;20207;-70
2021/06/07 00:33:17;;;;;;;5.28;4.78;;;20.20;99.90;;;;;;5032726;28;20231;-70
2021/06/07 00:35:44;;;;;;;5.10;4.70;;;20.10;99.90;;;;;;5032194;28;20191;-70
2021/06/07 00:38:11;;;;;;;5.22;4.82;;;20.10;99.90;;;;;;5032438;28;20704;-70
2021/06/07 00:40:38;;;;;;;4.57;4.28;;;20.10;99.90;;;;;;5032141;28;20244;-69
2021/06/07 00:43:06;;;;;;;5.07;4.63;;;20.10;99.90;;;;;;5033146;28;20632;-70
2021/06/07 00:45:34;;;;;;;5.00;4.60;;;20.10;99.90;;;;;;5024678;28;20230;-69
2021/06/07 00:48:03;;;;;;;5.10;4.60;;;20.10;99.90;;;;;;5023409;28;20207;-69
2021/06/07 00:50:35;;;;;;;4.53;4.13;;;20.10;99.90;;;;;;5032739;28;20206;-69
2021/06/07 00:53:03;;;;;;;5.03;4.63;;;20.10;99.90;;;;;;5033124;28;20203;-69
2021/06/07 00:55:33;;;;;;;5.40;4.90;;;20.10;99.90;;;;;;5026922;28;20326;-69
2021/06/07 00:58:00;;;;;;;4.97;4.57;;;20.10;99.90;;;;;;5032871;28;20218;-69
2021/06/07 01:00:29;;;;;;;4.70;4.30;;;20.10;99.90;;;;;;5032202;28;20678;-69
2021/06/07 01:02:57;;;;;;;4.50;4.10;;;20.10;99.90;;;;;;5033340;28;20222;-69
2021/06/07 01:05:24;;;;;;;5.32;4.82;;;20.10;99.90;;;;;;5032657;28;20632;-69
2021/06/07 01:07:50;;;;;;;4.40;4.10;;;20.10;99.90;;;;;;5032997;28;20501;-69
2021/06/07 01:10:18;;;;;;;5.82;5.30;;;20.10;99.90;;;;;;5031803;28;20714;-69
2021/06/07 01:12:44;;;;;;;4.95;4.45;;;20.10;99.90;;;;;;5032789;28;20195;-69
2021/06/07 01:15:12;;;;;;;4.68;4.30;;;20.10;99.90;;;;;;5032226;28;20209;-69
2021/06/07 01:17:40;;;;;;;4.60;4.20;;;20.00;99.90;;;;;;5032238;28;20215;-69
2021/06/07 01:20:09;;;;;;;4.80;4.40;;;20.00;99.90;;;;;;5031437;28;20283;-69
2021/06/07 01:22:37;;;;;;;5.20;4.80;;;20.00;99.90;;;;;;5032016;28;20203;-68
2021/06/07 01:25:07;;;;;;;4.97;4.57;;;20.00;99.90;;;;;;5032069;28;20195;-68
2021/06/07 01:27:33;;;;;;;6.40;5.18;;;20.00;99.90;;;;;;5032479;28;20269;-69
2021/06/07 01:29:59;;;;;;;5.63;5.13;;;20.00;99.90;;;;;;5032289;28;20636;-69
2021/06/07 01:32:26;;;;;;;5.22;4.72;;;20.00;99.90;;;;;;5026860;28;20199;-69
2021/06/07 01:34:52;;;;;;;4.78;4.38;;;20.00;99.90;;;;;;5031888;28;20707;-69
2021/06/07 01:37:18;;;;;;;6.78;5.90;;;20.00;99.90;;;;;;5029845;28;21045;-69
2021/06/07 01:39:46;;;;;;;4.90;4.40;;;20.00;99.90;;;;;;5031986;28;20202;-69
2021/06/07 01:42:12;;;;;;;5.03;4.63;;;20.00;99.90;;;;;;5031875;28;20210;-69
2021/06/07 01:44:38;;;;;;;5.30;4.80;;;20.00;99.90;;;;;;5031789;28;20914;-68
2021/06/07 01:47:04;;;;;;;5.90;5.35;;;20.00;99.90;;;;;;5031212;28;20229;-68
2021/06/07 01:49:30;;;;;;;6.28;5.68;;;19.90;99.90;;;;;;5032054;28;20200;-70
2021/06/07 01:51:57;;;;;;;5.20;4.80;;;20.00;99.90;;;;;;5031849;28;20655;-70
2021/06/07 01:54:23;;;;;;;4.57;4.18;;;19.90;99.90;;;;;;5031809;28;20581;-69
2021/06/07 01:56:50;;;;;;;5.57;4.90;;;19.90;99.90;;;;;;5031426;28;20214;-69
2021/06/07 01:59:16;;;;;;;4.70;4.30;;;19.90;99.90;;;;;;5032161;28;20225;-70
2021/06/07 02:01:43;;;;;;;5.60;5.15;;;19.90;99.90;;;;;;5031048;28;20192;-70
2021/06/07 02:04:09;;;;;;;5.78;5.28;;;19.90;99.90;;;;;;5032308;28;20211;-69
2021/06/07 02:06:35;;;;;;;5.63;5.13;;;19.90;99.90;;;;;;5031817;28;20250;-70
2021/06/07 02:09:03;;;;;;;4.78;4.38;;;19.90;99.90;;;;;;5030628;28;20210;-69
2021/06/07 02:11:30;;;;;;;6.03;5.10;;;19.90;99.90;;;;;;5025722;28;20238;-70
2021/06/07 02:14:03;;;;;;;5.20;4.70;;;19.80;99.90;;;;;;5030989;28;20221;-70
2021/06/07 02:16:32;;;;;;;6.13;5.53;;;19.80;99.90;;;;;;5030053;28;20206;-70
2021/06/07 02:18:58;;;;;;;5.25;4.75;;;19.80;99.90;;;;;;5023475;28;20219;-70
2021/06/07 02:21:26;;;;;;;6.40;5.80;;;19.80;99.90;;;;;;5031035;28;20195;-69
2021/06/07 02:23:53;;;;;;;6.03;5.43;;;19.80;99.90;;;;;;5030989;28;20218;-70
2021/06/07 02:26:22;;;;;;;5.85;5.30;;;19.80;99.90;;;;;;5031072;28;20203;-69
2021/06/07 02:28:50;;;;;;;5.85;5.35;;;19.80;99.90;;;;;;5031311;28;20545;-71
2021/06/07 02:31:19;;;;;;;6.05;5.45;;;19.80;99.90;;;;;;5031043;28;20207;-70
2021/06/07 02:33:47;;;;;;;6.50;5.82;;;19.80;99.90;;;;;;5030754;28;20227;-71
2021/06/07 02:36:14;;;;;;;5.30;4.80;;;19.80;99.90;;;;;;5031464;28;20833;-71
2021/06/07 02:38:40;;;;;;;5.22;4.70;;;19.80;99.90;;;;;;5030873;28;20227;-70
2021/06/07 02:41:06;;;;;;;6.20;5.60;;;19.80;99.90;;;;;;5030817;28;20583;-71
2021/06/07 02:43:33;;;;;;;7.53;6.75;;;19.80;99.90;;;;;;5024814;28;20207;-70
2021/06/07 02:45:59;;;;;;;6.82;6.20;;;19.80;99.90;;;;;;5011809;28;20653;-69
2021/06/07 02:48:26;;;;;;;5.60;5.10;;;19.80;99.90;;;;;;5030475;28;20199;-69
2021/06/07 02:50:53;;;;;;;7.75;7.05;;;19.80;99.90;;;;;;5031465;28;20698;-69
2021/06/07 02:53:19;;;;;;;7.47;6.82;;;19.70;99.90;;;;;;5031318;28;20207;-70
2021/06/07 02:55:49;;;;;;;6.95;6.28;;;19.70;99.90;;;;;;5030119;28;20207;-70
2021/06/07 02:58:16;;;;;;;6.65;6.00;;;19.70;99.90;;;;;;5031004;28;20219;-70
2021/06/07 03:00:45;;;;;;;6.57;5.97;;;19.70;99.90;;;;;;5014760;28;20589;-70
2021/06/07 03:03:12;;;;;;;6.68;6.07;;;19.70;99.90;;;;;;5015669;28;20275;-71
2021/06/07 03:05:42;;;;;;;6.97;6.28;;;19.70;99.90;;;;;;5032198;28;20207;-71
2021/06/07 03:08:10;;;;;;;7.28;6.50;;;19.70;99.90;;;;;;5034207;28;20188;-70
2021/06/07 03:10:36;;;;;;;6.93;6.25;;;19.70;99.90;;;;;;5034921;28;20226;-70
2021/06/07 03:13:03;;;;;;;8.27;7.47;;;19.60;99.90;;;;;;5035286;28;20203;-70
2021/06/07 03:15:29;;;;;;;7.38;6.68;;;19.60;99.90;;;;;;5032928;28;20207;-70
2021/06/07 03:17:57;;;;;;;7.32;6.57;;;19.60;99.90;;;;;;5033948;28;20605;-70
2021/06/07 03:20:25;;;;;;;9.93;7.40;;;19.70;99.90;;;;;;5034865;28;20200;-70
2021/06/07 03:22:54;;;;;;;9.70;7.55;;;19.60;99.90;;;;;;5033598;28;20282;-70
2021/06/07 03:25:20;;;;;;;8.73;6.90;;;19.60;99.90;;;;;;5028599;28;20202;-70
2021/06/07 03:27:46;;;;;;;7.53;6.75;;;19.60;99.90;;;;;;5034526;28;20281;-70
2021/06/07 03:30:14;;;;;;;9.05;7.43;;;19.60;99.90;;;;;;5033353;28;21961;-70
2021/06/07 03:32:40;;;;;;;10.05;7.15;;;19.60;99.90;;;;;;5034145;28;20597;-70
2021/06/07 03:35:08;;;;;;;8.27;7.53;;;19.60;99.90;;;;;;5034710;28;20211;-71
2021/06/07 03:37:34;;;;;;;7.45;6.75;;;19.60;99.90;;;;;;5034798;28;20265;-70
2021/06/07 03:40:05;;;;;;;9.55;7.65;;;19.60;99.90;;;;;;5035001;28;20207;-70
2021/06/07 03:42:32;;;;;;;9.95;7.32;;;19.60;99.90;;;;;;5028145;28;20528;-70
2021/06/07 03:44:58;;;;;;;8.82;7.75;;;19.60;99.90;;;;;;5035372;28;20207;-70
2021/06/07 03:47:24;;;;;;;8.43;7.72;;;19.60;99.90;;;;;;5035362;28;20188;-70
2021/06/07 03:49:50;;;;;;;7.90;7.10;;;19.60;99.90;;;;;;5034548;28;20207;-70
2021/06/07 03:52:17;;;;;;;12.05;9.23;;;19.60;99.90;;;;;;5015415;28;20258;-69
2021/06/07 03:54:43;;;;;;;9.90;8.02;;;19.60;99.90;;;;;;5030256;28;20226;-70
2021/06/07 03:57:11;;;;;;;9.27;8.07;;;19.50;99.90;;;;;;5034566;28;20215;-70
2021/06/07 03:59:37;;;;;;;8.90;7.97;;;19.50;99.90;;;;;;5034838;28;20683;-69
2021/06/07 04:02:08;;;;;;;8.02;7.22;;;19.50;99.90;;;;;;5034643;28;20204;-69
2021/06/07 04:04:34;;;;;;;10.55;9.45;;;19.50;99.90;;;;;;5034426;28;20202;-70
2021/06/07 04:07:00;;;;;;;11.65;9.25;;;19.50;99.90;;;;;;5034501;28;20226;-69
2021/06/07 04:09:27;;;;;;;11.00;8.55;;;19.50;99.90;;;;;;5015949;28;20254;-69
2021/06/07 04:11:54;;;;;;;9.77;8.57;;;19.50;99.90;;;;;;5033102;28;20688;-69
2021/06/07 04:14:21;;;;;;;9.55;8.40;;;19.50;99.90;;;;;;5034812;28;20199;-70
2021/06/07 04:16:48;;;;;;;9.93;8.93;;;19.50;99.90;;;;;;5034040;28;20199;-69
2021/06/07 04:19:14;;;;;;;10.40;9.40;;;19.50;99.90;;;;;;5033932;28;20223;-69
2021/06/07 04:21:40;;;;;;;9.60;8.70;;;19.50;99.90;;;;;;5033509;28;20249;-71
2021/06/07 04:24:08;;;;;;;11.02;8.13;;;19.50;99.90;;;;;;5032839;28;20595;-70
2021/06/07 04:26:35;;;;;;;10.25;9.23;;;19.50;99.90;;;;;;5033151;28;20196;-70
2021/06/07 04:29:02;;;;;;;11.43;9.60;;;19.50;99.90;;;;;;5025587;28;20196;-70
2021/06/07 04:31:30;;;;;;;9.93;8.90;;;19.50;99.90;;;;;;5013697;28;20661;-70
2021/06/07 04:33:56;;;;;;;11.85;8.70;;;19.50;99.90;;;;;;5023976;28;20569;-70
2021/06/07 04:36:22;;;;;;;9.27;8.35;;;19.50;99.90;;;;;;5033460;28;20199;-71
2021/06/07 04:38:51;;;;;;;12.52;9.70;;;19.40;99.90;;;;;;5033746;28;20219;-70
2021/06/07 04:41:18;;;;;;;12.52;8.90;;;19.50;99.90;;;;;;5033133;28;20347;-70
2021/06/07 04:43:44;;;;;;;13.32;11.05;;;19.50;99.90;;;;;;5032800;28;20207;-70
2021/06/07 04:46:10;;;;;;;11.13;8.95;;;19.50;99.90;;;;;;5033264;28;20249;-70
2021/06/07 04:48:38;;;;;;;11.90;10.70;;;19.40;99.90;;;;;;5013994;28;20212;-70
2021/06/07 04:51:05;;;;;;;13.20;9.55;;;19.40;99.90;;;;;;5026817;28;20766;-70
2021/06/07 04:53:31;;;;;;;11.90;10.20;;;19.50;99.90;;;;;;5033086;28;20200;-70
2021/06/07 04:55:57;;;;;;;10.02;8.85;;;19.50;99.90;;;;;;5032522;28;20204;-70
2021/06/07 04:58:27;;;;;;;11.93;9.75;;;19.50;99.90;;;;;;5027258;28;20224;-71
2021/06/07 05:00:55;;;;;;;14.77;10.25;;;19.40;99.90;;;;;;5013469;28;20290;-70
2021/06/07 05:03:22;;;;;;;12.90;10.13;;;19.40;99.90;;;;;;5025962;28;20659;-70
2021/06/07 05:05:49;;;;;;;10.38;9.18;;;19.40;99.90;;;;;;5032929;28;20261;-70
2021/06/07 05:08:15;;;;;;;10.88;9.77;;;19.40;99.90;;;;;;5032143;28;20238;-70
2021/06/07 05:10:42;;;;;;;13.23;9.90;;;19.40;99.90;;;;;;5032895;28;20196;-70
2021/06/07 05:13:08;;;;;;;11.77;10.00;;;19.40;99.90;;;;;;5031242;28;20204;-70
2021/06/07 05:15:35;;;;;;;12.95;10.70;;;19.40;99.90;;;;;;5032494;28;20893;-69
2021/06/07 05:18:02;;;;;;;14.40;10.57;;;19.40;99.90;;;;;;5031976;28;20215;-70
2021/06/07 05:20:29;;;;;;;13.43;10.80;;;19.40;99.90;;;;;;5027856;28;20208;-70
2021/06/07 05:22:58;;;;;;;14.00;10.75;;;19.40;99.90;;;;;;5018452;28;20187;-69
2021/06/07 05:25:26;;;;;;;14.50;11.35;;;19.40;99.90;;;;;;5032615;28;20199;-69
2021/06/07 05:27:53;;;;;;;11.00;9.02;;;19.40;99.90;;;;;;5031157;28;20191;-70
2021/06/07 05:30:21;;;;;;;14.82;10.15;;;19.40;99.90;;;;;;5028353;28;20200;-69
2021/06/07 05:32:48;;;;;;;9.70;8.80;;;19.30;99.90;;;;;;5017795;28;20571;-69
2021/06/07 05:35:16;;;;;;;14.93;10.40;;;19.30;99.90;;;;;;5032085;28;20690;-69
2021/06/07 05:37:42;;;;;;;10.52;9.57;;;19.30;99.90;;;;;;5031966;28;20388;-69
2021/06/07 05:40:11;;;;;;;11.13;9.73;;;19.40;99.90;;;;;;5032029;28;20257;-69
2021/06/07 05:42:38;;;;;;;11.35;9.80;;;19.30;99.90;;;;;;5031922;28;20210;-69
2021/06/07 05:45:07;;;;;;;14.02;9.95;;;19.30;99.90;;;;;;5031940;28;20199;-69
2021/06/07 05:47:33;;;;;;;10.55;9.55;;;19.30;99.90;;;;;;5014641;28;20196;-69
2021/06/07 05:50:00;;;;;;;12.13;10.65;;;19.30;99.90;;;;;;5012482;28;20196;-69
2021/06/07 05:52:26;;;;;;;12.27;10.77;;;19.30;99.90;;;;;;5028406;28;20199;-69
2021/06/07 05:54:52;;;;;;;10.98;9.88;;;19.30;99.90;;;;;;5031722;28;20207;-69
2021/06/07 05:57:20;;;;;;;14.13;10.65;;;19.30;99.90;;;;;;5031821;28;20204;-69
2021/06/07 05:59:46;;;;;;;11.35;9.98;;;19.30;99.90;;;;;;5031226;28;20210;-69
2021/06/07 06:02:12;;;;;;;11.57;10.40;;;19.30;99.90;;;;;;5026393;28;20226;-69
2021/06/07 06:04:40;;;;;;;13.13;11.18;;;19.30;99.90;;;;;;5031693;28;20215;-70
2021/06/07 06:07:07;;;;;;;12.60;10.25;;;19.30;99.90;;;;;;5031930;28;20749;-69
2021/06/07 06:09:33;;;;;;;10.90;9.75;;;19.30;99.90;;;;;;5014734;28;20270;-69
2021/06/07 06:12:00;;;;;;;11.18;9.93;;;19.30;99.90;;;;;;5028571;28;20576;-69
2021/06/07 06:14:28;;;;;;;10.95;9.95;;;19.30;99.90;;;;;;5030270;28;20249;-69
2021/06/07 06:16:55;;;;;;;10.63;8.90;;;19.30;99.90;;;;;;5030854;28;20207;-69
2021/06/07 06:19:23;;;;;;;11.13;10.02;;;19.30;99.90;;;;;;5031109;28;20560;-70
2021/06/07 06:21:49;;;;;;;13.20;9.70;;;19.30;99.90;;;;;;5031013;28;20951;-69
2021/06/07 06:24:15;;;;;;;11.13;10.05;;;19.30;99.90;;;;;;5031526;28;20199;-69
2021/06/07 06:26:42;;;;;;;10.70;9.70;;;19.30;99.90;;;;;;5025027;28;20206;-72
2021/06/07 06:29:10;;;;;;;10.73;9.52;;;19.30;99.90;;;;;;5031013;28;20195;-69
2021/06/07 06:31:37;;;;;;;11.93;10.23;;;19.30;99.90;;;;;;5031668;28;20210;-71
2021/06/07 06:34:04;;;;;;;12.90;11.40;;;19.30;99.90;;;;;;5024866;28;20331;-71
2021/06/07 06:36:31;;;;;;;10.30;9.20;;;19.30;99.90;;;;;;5011753;28;20289;-71
2021/06/07 06:38:57;;;;;;;10.98;9.30;;;19.30;99.90;;;;;;5011273;28;20216;-70
2021/06/07 06:41:24;;;;;;;11.93;9.20;;;19.30;99.90;;;;;;5027327;28;20548;-70
2021/06/07 06:43:50;;;;;;;11.05;9.43;;;19.30;99.90;;;;;;5030876;28;20666;-70
2021/06/07 06:46:16;;;;;;;10.40;9.40;;;19.30;99.90;;;;;;5031086;28;20211;-70
2021/06/07 06:48:44;;;;;;;14.13;9.43;;;19.30;99.90;;;;;;5031085;28;20621;-70
2021/06/07 06:51:11;;;;;;;9.70;8.77;;;19.20;99.90;;;;;;5030567;28;20195;-70
2021/06/07 06:53:37;;;;;;;10.05;9.15;;;19.30;99.90;;;;;;5031047;28;20199;-70
2021/06/07 06:56:03;;;;;;;11.48;9.65;;;19.30;99.90;;;;;;5030812;28;20211;-69
2021/06/07 06:58:30;;;;;;;10.77;9.65;;;19.30;99.90;;;;;;5031043;28;20230;-70
2021/06/07 07:00:56;;;;;;;12.75;10.80;;;19.20;99.90;;;;;;5030153;28;20195;-70
2021/06/07 07:03:23;;;;;;;9.82;8.27;;;19.30;99.90;;;;;;5030600;28;20206;-71
2021/06/07 07:05:50;;;;;;;13.20;10.15;;;19.30;99.90;;;;;;5030208;28;20227;-70
2021/06/07 07:08:19;;;;;;;10.50;9.60;;;19.30;99.90;;;;;;5031384;28;20210;-70
2021/06/07 07:10:46;;;;;;;10.98;9.98;;;19.30;99.90;;;;;;5030739;28;20207;-70
2021/06/07 07:13:12;;;;;;;10.52;9.63;;;19.30;99.90;;;;;;5026812;28;20199;-70
2021/06/07 07:15:38;;;;;;;11.48;10.27;;;19.30;99.90;;;;;;5030828;28;20210;-70
2021/06/07 07:18:06;;;;;;;12.45;10.77;;;19.30;99.90;;;;;;5030426;28;20215;-70
2021/06/07 07:20:32;;;;;;;11.25;10.13;;;19.30;99.90;;;;;;5029699;28;20199;-69
2021/06/07 07:23:00;;;;;;;12.02;10.90;;;19.30;99.90;;;;;;5028884;28;20199;-70
2021/06/07 07:25:27;;;;;;;10.43;9.43;;;19.30;99.90;;;;;;5024406;28;20521;-70
2021/06/07 07:27:53;;;;;;;11.40;10.30;;;19.30;99.90;;;;;;5030868;28;20639;-69
2021/06/07 07:30:22;;;;;;;10.50;9.50;;;19.30;99.90;;;;;;5029933;28;20214;-70
2021/06/07 07:32:50;;;;;;;16.25;14.63;;;19.30;99.90;;;;;;5030475;28;20199;-69
2021/06/07 07:35:18;;;;;;;12.52;11.23;;;19.30;99.90;;;;;;5030810;28;20199;-69
2021/06/07 07:37:44;;;;;;;14.25;12.70;;;19.30;99.90;;;;;;5029653;28;20219;-69
2021/06/07 07:40:14;;;;;;;14.43;12.90;;;19.30;99.90;;;;;;5030643;28;20199;-69
2021/06/07 07:42:41;;;;;;;14.27;12.80;;;19.30;99.90;;;;;;5030953;28;20199;-69
2021/06/07 07:45:10;;;;;;;11.88;10.13;;;19.30;99.90;;;;;;5030466;28;20740;-70
2021/06/07 07:47:37;;;;;;;14.32;12.27;;;19.30;99.90;;;;;;5034137;28;20203;-70
2021/06/07 07:50:04;;;;;;;12.63;11.32;;;19.40;99.90;;;;;;5034829;28;20199;-70
2021/06/07 07:52:30;;;;;;;12.77;11.57;;;19.40;99.90;;;;;;5034003;28;20218;-70
2021/06/07 07:54:57;;;;;;;12.60;11.52;;;19.40;99.90;;;;;;5033704;28;20196;-69
2021/06/07 07:57:26;;;;;;;12.98;11.68;;;19.50;99.90;;;;;;5033870;28;20210;-70
2021/06/07 07:59:52;;;;;;;12.63;11.43;;;19.60;99.90;;;;;;5034805;28;20191;-69
2021/06/07 08:02:18;;;;;;;10.95;9.85;;;19.70;99.90;;;;;;5033930;28;20214;-70
2021/06/07 08:04:46;;;;;;;11.98;10.70;;;19.80;99.90;;;;;;5034283;28;20199;-69
2021/06/07 08:07:12;;;;;;;10.35;9.43;;;19.80;99.90;;;;;;5033624;28;20203;-70
2021/06/07 08:09:38;;;;;;;10.55;9.45;;;19.90;99.90;;;;;;5033951;28;20210;-70
2021/06/07 08:12:05;;;;;;;9.25;8.35;;;20.00;99.90;;;;;;5031356;28;20202;-70
2021/06/07 08:14:33;;;;;;;11.73;10.63;;;20.20;99.90;;;;;;5043310;28;20203;-70
2021/06/07 08:16:59;;;;;;;10.57;9.68;;;20.30;99.90;;;;;;5034356;28;20211;-70
2021/06/07 08:19:27;;;;;;;11.50;10.50;;;20.40;99.90;;;;;;5033194;28;20230;-70
2021/06/07 08:21:53;;;;;;;11.20;10.05;;;20.50;99.90;;;;;;5033787;28;20695;-70
2021/06/07 08:24:20;;;;;;;9.55;8.65;;;20.60;99.90;;;;;;5033528;28;20253;-70
2021/06/07 08:26:46;;;;;;;9.55;8.75;;;20.60;99.90;;;;;;5032654;28;20214;-70
2021/06/07 08:29:13;;;;;;;13.35;12.10;;;20.50;99.90;;;;;;5033949;28;20569;-69
2021/06/07 08:31:40;;;;;;;12.02;10.90;;;20.50;99.90;;;;;;5028770;28;20537;-70
2021/06/07 08:34:06;;;;;;;11.70;10.50;;;20.40;99.90;;;;;;5013958;28;20238;-69
2021/06/07 08:36:33;;;;;;;13.18;11.85;;;20.40;99.90;;;;;;5031520;28;20640;-70
2021/06/07 08:39:00;;;;;;;10.15;9.32;;;20.40;99.90;;;;;;5032816;28;20230;-72
2021/06/07 08:41:26;;;;;;;11.60;10.48;;;20.40;99.90;;;;;;5033287;28;20210;-70
2021/06/07 08:43:53;;;;;;;12.85;11.55;;;20.40;99.90;;;;;;5032998;28;20199;-70
2021/06/07 08:46:20;;;;;;;12.50;10.93;;;20.30;99.90;;;;;;5033166;28;20274;-70
2021/06/07 08:48:48;;;;;;;11.60;10.57;;;20.40;99.90;;;;;;5033336;28;20249;-71
2021/06/07 08:51:14;;;;;;;11.02;9.93;;;20.40;99.90;;;;;;5032933;28;20203;-70
2021/06/07 08:53:40;;;;;;;10.70;9.80;;;20.40;99.90;;;;;;5013456;28;20196;-70
2021/06/07 08:56:07;;;;;;;10.85;9.88;;;20.40;99.90;;;;;;5027799;28;20200;-70
2021/06/07 08:58:33;;;;;;;9.02;8.27;;;20.40;99.90;;;;;;5031816;28;20218;-70
2021/06/07 09:00:59;;;;;;;9.38;8.38;;;20.40;99.90;;;;;;5032584;28;20195;-71
2021/06/07 09:03:31;;;;;;;9.77;8.88;;;20.40;99.90;;;;;;5032810;28;20261;-70
2021/06/07 09:06:01;;;;;;;11.93;10.27;;;20.40;99.90;;;;;;5032055;28;20211;-70
2021/06/07 09:08:31;;;;;;;10.30;9.38;;;20.40;99.90;;;;;;5032908;28;20196;-70
2021/06/07 09:10:58;;;;;;;9.00;8.10;;;20.40;99.90;;;;;;5032062;28;20195;-71
2021/06/07 09:13:29;;;;;;;9.82;9.02;;;20.40;99.90;;;;;;5032294;28;20207;-70
2021/06/07 09:15:57;;;;;;;10.23;9.32;;;20.40;99.90;;;;;;5030772;28;20202;-70
2021/06/07 09:18:29;;;;;;;8.65;7.93;;;20.40;99.90;;;;;;5021564;28;20227;-70
2021/06/07 09:21:02;;;;;;;8.15;7.45;;;20.40;99.90;;;;;;5028018;28;20206;-70
2021/06/07 09:23:43;;;;;;;9.18;8.30;;;20.40;99.90;;;;;;5032001;28;20192;-70
2021/06/07 09:26:24;;;;;;;9.18;8.38;;;20.40;99.90;;;;;;5026844;28;20659;-70
2021/06/07 09:28:54;;;;;;;9.75;8.80;;;20.40;99.90;;;;;;5024508;28;20246;-70
2021/06/07 09:31:27;;;;;;;9.30;8.60;;;20.50;99.90;;;;;;5031379;28;20285;-70
2021/06/07 09:33:53;;;;;;;9.52;8.73;;;20.50;99.90;;;;;;5031572;28;20258;-69
2021/06/07 09:36:24;;;;;;;9.60;8.70;;;20.50;99.90;;;;;;5032097;28;20199;-70
2021/06/07 09:39:12;;;;;;;9.27;8.45;;;20.50;99.90;;;;;;5031910;28;20257;-69
2021/06/07 09:41:56;;;;;;;8.20;7.55;;;20.50;99.90;;;;;;5030957;28;20298;-70
2021/06/07 09:44:25;;;;;;;9.27;8.48;;;20.50;99.90;;;;;;5032096;28;20203;-70
2021/06/07 09:46:53;;;;;;;10.25;9.40;;;20.60;99.90;;;;;;5031694;28;20749;-70
2021/06/07 09:49:22;;;;;;;9.13;7.75;;;20.60;99.90;;;;;;5025734;28;20682;-69
2021/06/07 09:51:55;;;;;;;7.95;7.30;;;20.60;99.90;;;;;;5031701;28;20206;-70
2021/06/07 09:54:24;;;;;;;9.65;8.85;;;20.60;99.90;;;;;;5031366;28;20200;-69
2021/06/07 09:56:52;;;;;;;10.13;7.68;;;20.70;99.90;;;;;;5031633;28;20203;-69
2021/06/07 09:59:29;;;;;;;9.20;8.50;;;20.70;99.90;;;;;;5026871;28;20277;-70
2021/06/07 10:01:57;;;;;;;8.27;7.32;;;20.70;99.90;;;;;;5027423;28;20210;-69
2021/06/07 10:04:38;;;;;;;9.35;8.45;;;20.70;99.90;;;;;;5031916;28;20582;-70
2021/06/07 10:07:09;;;;;;;8.10;7.47;;;20.80;99.90;;;;;;5031356;28;20203;-69
2021/06/07 10:09:35;;;;;;;8.05;7.35;;;20.80;99.90;;;;;;5026002;28;20621;-70
2021/06/07 10:12:01;;;;;;;8.52;7.72;;;20.80;99.90;;;;;;5028551;28;20239;-70
2021/06/07 10:14:27;;;;;;;7.88;7.18;;;20.80;99.90;;;;;;5019174;28;20208;-70
2021/06/07 10:16:57;;;;;;;7.28;6.78;;;20.90;99.90;;;;;;5010767;28;20211;-70
2021/06/07 10:19:32;;;;;;;7.70;7.10;;;20.90;99.90;;;;;;5013043;28;20260;-71
2021/06/07 10:21:59;;;;;;;8.43;7.68;;;20.90;99.90;;;;;;5028077;28;20206;-71
2021/06/07 10:24:27;;;;;;;7.80;7.10;;;20.90;99.90;;;;;;5014386;28;20629;-71
2021/06/07 10:26:53;;;;;;;6.03;5.50;;;20.90;99.90;;;;;;5027774;28;20782;-71
2021/06/07 10:29:20;;;;;;;8.02;6.80;;;21.00;99.90;;;;;;5029935;28;20632;-70
2021/06/07 10:31:47;;;;;;;7.38;6.70;;;21.00;99.90;;;;;;5028904;28;20253;-71
2021/06/07 10:34:13;;;;;;;6.75;6.18;;;21.00;99.90;;;;;;5030950;28;20289;-70
2021/06/07 10:36:46;;;;;;;6.93;6.40;;;21.00;99.90;;;;;;5030618;28;20199;-70
2021/06/07 10:39:27;;;;;;;7.05;6.35;;;21.00;99.90;;;;;;5030501;28;20203;-71
2021/06/07 10:42:21;;;;;;;7.28;6.40;;;21.00;99.90;;;;;;5030785;28;20704;-70
2021/06/07 10:44:51;;;;;;;6.50;5.95;;;21.10;99.90;;;;;;5031159;28;20543;-70
2021/06/07 10:47:19;;;;;;;6.65;6.07;;;21.10;99.90;;;;;;5030874;28;20210;-70
2021/06/07 10:49:48;;;;;;;7.30;6.70;;;21.10;99.90;;;;;;5030525;28;20199;-70
2021/06/07 10:52:16;;;;;;;7.18;6.65;;;21.10;99.90;;;;;;5018195;28;20214;-70
2021/06/07 10:54:46;;;;;;;7.25;6.65;;;21.10;99.90;;;;;;5019254;28;20541;-70
2021/06/07 10:57:32;;;;;;;6.85;6.20;;;21.10;99.90;;;;;;5030686;28;20203;-69
2021/06/07 11:00:00;;;;;;;6.38;5.78;;;21.10;99.90;;;;;;5031575;28;20234;-71
2021/06/07 11:02:32;;;;;;;9.85;8.45;;;21.10;99.90;;;;;;5030589;28;20203;-71
2021/06/07 11:05:07;;;;;;;5.93;5.45;;;21.20;99.90;;;;;;5031148;28;20202;-72
2021/06/07 11:07:34;;;;;;;5.60;5.20;;;21.20;99.90;;;;;;5030964;28;21622;-70
2021/06/07 11:10:23;;;;;;;5.55;5.15;;;21.20;99.90;;;;;;5030069;28;20199;-71
2021/06/07 11:12:51;;;;;;;6.47;5.28;;;21.20;99.90;;;;;;5031209;28;20208;-72
2021/06/07 11:15:20;;;;;;;6.93;5.70;;;21.30;99.90;;;;;;5030733;28;20222;-72
2021/06/07 11:17:47;;;;;;;6.15;5.45;;;21.30;99.90;;;;;;5031300;28;20551;-71
2021/06/07 11:20:29;;;;;;;5.80;5.30;;;21.30;99.90;;;;;;5022950;28;20226;-71
2021/06/07 11:23:12;;;;;;;7.45;6.63;;;21.30;99.90;;;;;;5015122;28;20645;-71
2021/06/07 11:25:52;;;;;;;8.13;6.05;;;21.40;99.90;;;;;;5032990;28;20687;-71
2021/06/07 11:28:35;;;;;;;5.38;4.97;;;21.40;99.90;;;;;;5033729;28;20203;-70
2021/06/07 11:31:03;;;;;;;5.93;5.43;;;21.40;99.90;;;;;;5033718;28;20521;-70
2021/06/07 11:33:41;;;;;;;6.80;6.30;;;21.50;99.90;;;;;;5033529;28;20687;-70
2021/06/07 11:36:46;;;;;;;6.03;5.53;;;21.50;99.90;;;;;;5035272;28;20187;-71
2021/06/07 11:39:16;;;;;;;5.38;4.97;;;21.50;99.90;;;;;;5034188;28;20219;-71
2021/06/07 11:41:48;;;;;;;6.28;5.38;;;21.50;99.90;;;;;;5034427;28;20215;-70
2021/06/07 11:44:16;;;;;;;5.90;5.40;;;21.50;99.90;;;;;;5034743;28;20211;-70
2021/06/07 11:46:56;;;;;;;7.10;6.43;;;21.50;99.90;;;;;;5034417;28;20204;-71
2021/06/07 11:49:22;;;;;;;6.28;5.75;;;21.50;99.90;;;;;;5034559;28;20289;-70
2021/06/07 11:52:01;;;;;;;6.70;5.95;;;21.60;99.90;;;;;;5033969;28;20564;-70
2021/06/07 11:54:52;;;;;;;5.68;5.15;;;21.60;99.90;;;;;;5034648;28;20237;-71
2021/06/07 11:57:21;;;;;;;5.43;4.97;;;21.60;99.90;;;;;;5034033;28;20253;-69
2021/06/07 11:59:54;;;;;;;5.97;5.50;;;21.60;99.90;;;;;;5033791;28;20224;-70
2021/06/07 12:02:21;;;;;;;5.50;5.10;;;21.60;99.90;;;;;;5034433;28;20242;-71
2021/06/07 12:04:48;;;;;;;4.50;4.10;;;21.60;99.90;;;;;;5031569;28;20195;-70
2021/06/07 12:07:16;;;;;;;6.55;5.25;;;21.70;99.90;;;;;;5032734;28;20191;-70
2021/06/07 12:09:48;;;;;;;5.15;4.75;;;21.70;99.90;;;;;;5032271;28;20269;-70
2021/06/07 12:12:16;;;;;;;6.88;6.00;;;21.70;99.90;;;;;;5016434;28;20197;-71
2021/06/07 12:14:45;;;;;;;5.72;5.22;;;21.70;99.90;;;;;;5033010;28;20203;-70
2021/06/07 12:17:16;;;;;;;5.93;5.50;;;21.70;99.90;;;;;;5033221;28;20200;-70
2021/06/07 12:19:44;;;;;;;5.63;5.22;;;21.80;99.90;;;;;;5034032;28;20207;-70
2021/06/07 12:22:29;;;;;;;5.28;4.68;;;21.80;99.90;;;;;;5033621;28;20199;-71
2021/06/07 12:24:57;;;;;;;4.93;4.47;;;21.80;99.90;;;;;;5033603;28;20193;-70
2021/06/07 12:30:18;;;;;;;5.75;5.25;;;21.80;99.90;;;;;;5018625;28;20652;-70
2021/06/07 12:32:48;;;;;;;5.70;5.18;;;21.80;99.90;;;;;;5031417;28;20206;-70
2021/06/07 12:35:16;;;;;;;4.25;3.95;;;21.80;99.90;;;;;;5033675;28;20308;-70
2021/06/07 12:37:45;;;;;;;5.57;5.18;;;21.80;99.90;;;;;;5032963;28;20614;-70
2021/06/07 12:40:18;;;;;;;5.05;4.65;;;21.80;99.90;;;;;;5032896;28;20219;-70
2021/06/07 12:42:49;;;;;;;6.15;5.65;;;21.90;99.90;;;;;;5018964;28;20200;-70
2021/06/07 12:45:17;;;;;;;6.00;5.50;;;21.90;99.90;;;;;;5013863;28;20644;-70
2021/06/07 12:47:43;;;;;;;6.93;5.00;;;21.90;99.90;;;;;;5013739;28;20215;-70
2021/06/07 12:50:12;;;;;;;4.80;4.40;;;21.90;99.90;;;;;;5019098;28;20195;-70